Sarajevo, Bosnia and Herzegovina
Current Conditions -  °F | °C
As of 5:30 PM on Thursday 30 Oct 2014 (Local Time) from LQSA Reporting Station
Haze Haze  
Wind Chill:   Ceiling: 1500
Heat Index:   Visibility: 2.5mi
Dew Point:   Wind: 0mph
Humidity: 81%   Direction: NA
Pressure: 30.27"   Gusts: NA
Location:  43.85°N, 18.38°E
Report Text: LQSA 301530Z 00000KT 4000 BR BKN015 08/05 Q1025 NOSIG
Loading
Personal Weather Stations






























Interactive Weather Map
Tropical Storm Tracking
New forecast layout! Learn more

10-Day Weather Forecast

Advertisements
Track Severe Weather on mobile